sensor_id;sensor_type;location;lat;lon;timestamp;pressure;altitude;pressure_sealevel;temperature;humidity
29461;BME280;16428;47.836;35.106;2023-03-09T00:01:29;100348.34;;;9.17;100.00
29461;BME280;16428;47.836;35.106;2023-03-09T00:03:58;100347.41;;;9.33;100.00
29461;BME280;16428;47.836;35.106;2023-03-09T00:06:27;100354.25;;;9.44;100.00
29461;BME280;16428;47.836;35.106;2023-03-09T00:08:56;100361.28;;;9.45;100.00
29461;BME280;16428;47.836;35.106;2023-03-09T00:11:23;100351.41;;;9.37;100.00
29461;BME280;16428;47.836;35.106;2023-03-09T00:13:56;100357.25;;;9.41;100.00
29461;BME280;16428;47.836;35.106;2023-03-09T00:16:28;100355.00;;;9.30;100.00
29461;BME280;16428;47.836;35.106;2023-03-09T00:18:57;100346.78;;;9.31;100.00
29461;BME280;16428;47.836;35.106;2023-03-09T00:21:27;100333.50;;;9.38;100.00
29461;BME280;16428;47.836;35.106;2023-03-09T00:24:25;100332.78;;;9.44;100.00
29461;BME280;16428;47.836;35.106;2023-03-09T00:27:00;100332.81;;;9.36;100.00
29461;BME280;16428;47.836;35.106;2023-03-09T00:29:30;100330.56;;;9.47;100.00
29461;BME280;16428;47.836;35.106;2023-03-09T00:31:58;100329.66;;;9.32;100.00
29461;BME280;16428;47.836;35.106;2023-03-09T00:34:26;100322.00;;;9.29;100.00
29461;BME280;16428;47.836;35.106;2023-03-09T00:36:53;100321.63;;;9.09;100.00
29461;BME280;16428;47.836;35.106;2023-03-09T00:39:21;100316.34;;;9.24;100.00
29461;BME280;16428;47.836;35.106;2023-03-09T00:41:49;100320.31;;;9.05;100.00
29461;BME280;16428;47.836;35.106;2023-03-09T00:44:16;100326.75;;;9.19;100.00
29461;BME280;16428;47.836;35.106;2023-03-09T00:46:44;100318.94;;;9.09;100.00
29461;BME280;16428;47.836;35.106;2023-03-09T00:49:12;100317.25;;;9.16;100.00
29461;BME280;16428;47.836;35.106;2023-03-09T00:51:41;100307.97;;;9.19;100.00
29461;BME280;16428;47.836;35.106;2023-03-09T00:54:13;100307.81;;;8.98;100.00
29461;BME280;16428;47.836;35.106;2023-03-09T00:56:42;100329.03;;;8.68;100.00
29461;BME280;16428;47.836;35.106;2023-03-09T00:59:09;100325.13;;;8.79;100.00
29461;BME280;16428;47.836;35.106;2023-03-09T01:01:37;100321.53;;;8.64;100.00
29461;BME280;16428;47.836;35.106;2023-03-09T01:04:07;100324.97;;;8.33;100.00
29461;BME280;16428;47.836;35.106;2023-03-09T01:06:36;100324.66;;;8.36;100.00
29461;BME280;16428;47.836;35.106;2023-03-09T01:09:04;100322.91;;;8.52;100.00
29461;BME280;16428;47.836;35.106;2023-03-09T01:11:34;100315.19;;;8.57;100.00
29461;BME280;16428;47.836;35.106;2023-03-09T01:14:02;100316.84;;;8.66;100.00
29461;BME280;16428;47.836;35.106;2023-03-09T01:16:30;100320.25;;;8.52;100.00
29461;BME280;16428;47.836;35.106;2023-03-09T01:19:02;100306.56;;;8.30;100.00
29461;BME280;16428;47.836;35.106;2023-03-09T01:25:55;100324.97;;;8.33;100.00
29461;BME280;16428;47.836;35.106;2023-03-09T01:28:23;100317.59;;;8.43;100.00
29461;BME280;16428;47.836;35.106;2023-03-09T01:30:51;100314.25;;;8.41;100.00
29461;BME280;16428;47.836;35.106;2023-03-09T01:33:19;100308.53;;;8.53;100.00
29461;BME280;16428;47.836;35.106;2023-03-09T01:35:46;100304.13;;;8.60;100.00
29461;BME280;16428;47.836;35.106;2023-03-09T01:38:15;100299.38;;;8.78;100.00
29461;BME280;16428;47.836;35.106;2023-03-09T01:40:47;100299.78;;;8.90;100.00
29461;BME280;16428;47.836;35.106;2023-03-09T01:43:37;100304.66;;;8.86;100.00
29461;BME280;16428;47.836;35.106;2023-03-09T01:46:26;100307.25;;;9.02;100.00
29461;BME280;16428;47.836;35.106;2023-03-09T01:49:45;100318.88;;;8.95;100.00
29461;BME280;16428;47.836;35.106;2023-03-09T01:55:02;100324.00;;;9.04;100.00
29461;BME280;16428;47.836;35.106;2023-03-09T01:57:34;100324.97;;;9.11;100.00
29461;BME280;16428;47.836;35.106;2023-03-09T02:00:11;100327.56;;;9.20;100.00
29461;BME280;16428;47.836;35.106;2023-03-09T02:02:43;100325.88;;;9.27;100.00
29461;BME280;16428;47.836;35.106;2023-03-09T02:05:14;100332.59;;;9.23;100.00
29461;BME280;16428;47.836;35.106;2023-03-09T02:07:46;100334.31;;;9.15;100.00
29461;BME280;16428;47.836;35.106;2023-03-09T02:10:23;100348.25;;;9.34;100.00
29461;BME280;16428;47.836;35.106;2023-03-09T02:13:01;100351.31;;;9.31;100.00
29461;BME280;16428;47.836;35.106;2023-03-09T02:15:30;100355.00;;;9.30;100.00
29461;BME280;16428;47.836;35.106;2023-03-09T02:17:58;100352.25;;;9.38;100.00
29461;BME280;16428;47.836;35.106;2023-03-09T02:20:53;100348.53;;;9.47;100.00
29461;BME280;16428;47.836;35.106;2023-03-09T02:28:53;100341.06;;;9.57;100.00
29461;BME280;16428;47.836;35.106;2023-03-09T02:31:21;100341.00;;;9.42;100.00
29461;BME280;16428;47.836;35.106;2023-03-09T02:33:49;100352.59;;;9.35;100.00
29461;BME280;16428;47.836;35.106;2023-03-09T02:36:17;100352.63;;;9.58;100.00
29461;BME280;16428;47.836;35.106;2023-03-09T02:38:44;100348.00;;;9.66;100.00
29461;BME280;16428;47.836;35.106;2023-03-09T02:41:13;100340.94;;;9.73;100.00
29461;BME280;16428;47.836;35.106;2023-03-09T02:43:47;100339.47;;;9.85;100.00
29461;BME280;16428;47.836;35.106;2023-03-09T02:46:16;100343.50;;;9.67;100.00
29461;BME280;16428;47.836;35.106;2023-03-09T02:48:44;100342.38;;;9.61;100.00
29461;BME280;16428;47.836;35.106;2023-03-09T02:51:12;100346.00;;;9.45;100.00
29461;BME280;16428;47.836;35.106;2023-03-09T02:56:54;100336.69;;;9.10;100.00
29461;BME280;16428;47.836;35.106;2023-03-09T02:59:22;100336.03;;;9.08;100.00
29461;BME280;16428;47.836;35.106;2023-03-09T03:01:54;100334.69;;;9.04;100.00
29461;BME280;16428;47.836;35.106;2023-03-09T03:04:21;100348.09;;;9.04;100.00
29461;BME280;16428;47.836;35.106;2023-03-09T03:06:49;100345.56;;;9.11;100.00
29461;BME280;16428;47.836;35.106;2023-03-09T03:09:16;100344.91;;;9.09;100.00
29461;BME280;16428;47.836;35.106;2023-03-09T03:11:47;100348.72;;;9.14;100.00
29461;BME280;16428;47.836;35.106;2023-03-09T03:14:14;100346.41;;;9.11;100.00
29461;BME280;16428;47.836;35.106;2023-03-09T03:16:41;100343.88;;;9.10;100.00
29461;BME280;16428;47.836;35.106;2023-03-09T03:19:09;100358.19;;;9.25;100.00
29461;BME280;16428;47.836;35.106;2023-03-09T03:21:37;100349.09;;;9.11;100.00
29461;BME280;16428;47.836;35.106;2023-03-09T03:24:05;100344.38;;;9.13;100.00
29461;BME280;16428;47.836;35.106;2023-03-09T03:26:33;100344.28;;;9.30;100.00
29461;BME280;16428;47.836;35.106;2023-03-09T03:29:00;100354.00;;;9.31;100.00
29461;BME280;16428;47.836;35.106;2023-03-09T03:31:28;100345.28;;;9.29;100.00
29461;BME280;16428;47.836;35.106;2023-03-09T03:33:55;100353.34;;;9.29;100.00
29461;BME280;16428;47.836;35.106;2023-03-09T03:36:26;100346.06;;;9.14;100.00
29461;BME280;16428;47.836;35.106;2023-03-09T03:38:54;100338.47;;;9.18;100.00
29461;BME280;16428;47.836;35.106;2023-03-09T03:41:21;100335.22;;;9.31;100.00
29461;BME280;16428;47.836;35.106;2023-03-09T03:43:49;100342.53;;;9.14;100.00
29461;BME280;16428;47.836;35.106;2023-03-09T03:46:16;100339.94;;;9.29;100.00
29461;BME280;16428;47.836;35.106;2023-03-09T03:48:45;100339.06;;;9.05;100.00
29461;BME280;16428;47.836;35.106;2023-03-09T03:51:12;100341.66;;;8.91;100.00
29461;BME280;16428;47.836;35.106;2023-03-09T03:53:41;100339.13;;;8.89;100.00
29461;BME280;16428;47.836;35.106;2023-03-09T03:56:10;100342.88;;;8.80;100.00
29461;BME280;16428;47.836;35.106;2023-03-09T03:58:37;100338.78;;;9.00;100.00
29461;BME280;16428;47.836;35.106;2023-03-09T04:01:05;100342.16;;;8.86;100.00
29461;BME280;16428;47.836;35.106;2023-03-09T04:03:33;100333.84;;;8.81;100.00
29461;BME280;16428;47.836;35.106;2023-03-09T04:06:01;100332.69;;;9.06;100.00
29461;BME280;16428;47.836;35.106;2023-03-09T04:08:32;100330.25;;;8.97;100.00
29461;BME280;16428;47.836;35.106;2023-03-09T04:11:05;100316.66;;;8.67;100.00
29461;BME280;16428;47.836;35.106;2023-03-09T04:13:32;100317.44;;;8.76;100.00
29461;BME280;16428;47.836;35.106;2023-03-09T04:16:00;100308.72;;;8.82;100.00
29461;BME280;16428;47.836;35.106;2023-03-09T04:18:31;100311.66;;;8.64;100.00
29461;BME280;16428;47.836;35.106;2023-03-09T04:20:58;100311.44;;;8.74;100.00
29461;BME280;16428;47.836;35.106;2023-03-09T04:23:26;100313.16;;;8.67;100.00
29461;BME280;16428;47.836;35.106;2023-03-09T04:25:58;100328.97;;;8.85;100.00
29461;BME280;16428;47.836;35.106;2023-03-09T04:28:27;100317.00;;;8.64;100.00
29461;BME280;16428;47.836;35.106;2023-03-09T04:30:55;100325.13;;;8.79;100.00
29461;BME280;16428;47.836;35.106;2023-03-09T04:33:23;100320.38;;;8.89;100.00
29461;BME280;16428;47.836;35.106;2023-03-09T04:35:51;100330.75;;;8.92;100.00
29461;BME280;16428;47.836;35.106;2023-03-09T04:38:19;100325.28;;;8.86;100.00
29461;BME280;16428;47.836;35.106;2023-03-09T04:40:49;100324.44;;;8.85;100.00
29461;BME280;16428;47.836;35.106;2023-03-09T04:43:17;100315.59;;;8.76;100.00
29461;BME280;16428;47.836;35.106;2023-03-09T04:45:45;100306.66;;;8.92;100.00
29461;BME280;16428;47.836;35.106;2023-03-09T04:48:15;100310.56;;;8.81;100.00
29461;BME280;16428;47.836;35.106;2023-03-09T04:50:44;100312.41;;;8.81;100.00
29461;BME280;16428;47.836;35.106;2023-03-09T04:53:12;100316.94;;;8.80;100.00
29461;BME280;16428;47.836;35.106;2023-03-09T04:55:39;100322.13;;;8.74;100.00
29461;BME280;16428;47.836;35.106;2023-03-09T04:58:07;100315.34;;;8.94;100.00
29461;BME280;16428;47.836;35.106;2023-03-09T05:00:37;100311.91;;;9.08;100.00
29461;BME280;16428;47.836;35.106;2023-03-09T05:03:04;100307.88;;;9.12;100.00
29461;BME280;16428;47.836;35.106;2023-03-09T05:05:32;100310.56;;;9.12;100.00
29461;BME280;16428;47.836;35.106;2023-03-09T05:07:59;100311.88;;;9.16;100.00
29461;BME280;16428;47.836;35.106;2023-03-09T05:10:31;100315.00;;;9.20;100.00
29461;BME280;16428;47.836;35.106;2023-03-09T05:13:05;100309.19;;;9.16;100.00
29461;BME280;16428;47.836;35.106;2023-03-09T05:15:37;100318.94;;;9.32;100.00
29461;BME280;16428;47.836;35.106;2023-03-09T05:18:06;100312.13;;;9.30;100.00
29461;BME280;16428;47.836;35.106;2023-03-09T05:20:37;100301.97;;;9.40;100.00
29461;BME280;16428;47.836;35.106;2023-03-09T05:23:05;100298.66;;;9.38;100.00
29461;BME280;16428;47.836;35.106;2023-03-09T05:25:32;100302.28;;;9.45;100.00
29461;BME280;16428;47.836;35.106;2023-03-09T05:28:20;100296.38;;;9.27;100.00
29461;BME280;16428;47.836;35.106;2023-03-09T05:30:49;100299.84;;;9.12;100.00
29461;BME280;16428;47.836;35.106;2023-03-09T05:33:17;100304.75;;;9.32;100.00
29461;BME280;16428;47.836;35.106;2023-03-09T05:35:48;100297.25;;;9.19;100.00
29461;BME280;16428;47.836;35.106;2023-03-09T05:38:18;100306.16;;;9.42;100.00
29461;BME280;16428;47.836;35.106;2023-03-09T05:40:46;100292.28;;;9.39;100.00
29461;BME280;16428;47.836;35.106;2023-03-09T05:43:14;100312.22;;;9.36;100.00
29461;BME280;16428;47.836;35.106;2023-03-09T05:45:42;100307.09;;;9.49;100.00
29461;BME280;16428;47.836;35.106;2023-03-09T05:48:10;100315.06;;;9.35;100.00
29461;BME280;16428;47.836;35.106;2023-03-09T05:50:38;100320.16;;;9.30;100.00
29461;BME280;16428;47.836;35.106;2023-03-09T05:53:07;100321.53;;;9.26;100.00
29461;BME280;16428;47.836;35.106;2023-03-09T05:55:34;100331.53;;;9.32;100.00
29461;BME280;16428;47.836;35.106;2023-03-09T05:58:03;100325.88;;;9.27;100.00
29461;BME280;16428;47.836;35.106;2023-03-09T06:00:32;100322.09;;;9.36;100.00
29461;BME280;16428;47.836;35.106;2023-03-09T06:02:59;100326.41;;;9.45;100.00
29461;BME280;16428;47.836;35.106;2023-03-09T06:05:27;100330.16;;;9.36;100.00
29461;BME280;16428;47.836;35.106;2023-03-09T06:07:54;100323.91;;;9.43;100.00
29461;BME280;16428;47.836;35.106;2023-03-09T06:10:22;100325.34;;;9.31;100.00
29461;BME280;16428;47.836;35.106;2023-03-09T06:12:50;100316.41;;;9.39;100.00
29461;BME280;16428;47.836;35.106;2023-03-09T06:15:19;100320.44;;;9.35;100.00
29461;BME280;16428;47.836;35.106;2023-03-09T06:17:50;100317.75;;;9.35;100.00
29461;BME280;16428;47.836;35.106;2023-03-09T06:20:19;100317.09;;;9.33;100.00
29461;BME280;16428;47.836;35.106;2023-03-09T06:22:48;100313.91;;;9.14;100.00
29461;BME280;16428;47.836;35.106;2023-03-09T06:25:17;100302.69;;;9.11;100.00
29461;BME280;16428;47.836;35.106;2023-03-09T06:27:44;100303.69;;;9.33;100.00
29461;BME280;16428;47.836;35.106;2023-03-09T06:30:12;100306.59;;;9.31;100.00
29461;BME280;16428;47.836;35.106;2023-03-09T06:32:39;100313.78;;;9.31;100.00
29461;BME280;16428;47.836;35.106;2023-03-09T06:35:07;100311.03;;;9.39;100.00
29461;BME280;16428;47.836;35.106;2023-03-09T06:37:35;100305.56;;;9.55;100.00
29461;BME280;16428;47.836;35.106;2023-03-09T06:40:04;100303.09;;;9.68;100.00
29461;BME280;16428;47.836;35.106;2023-03-09T06:42:35;100312.94;;;9.91;100.00
29461;BME280;16428;47.836;35.106;2023-03-09T06:45:03;100310.78;;;9.71;100.00
29461;BME280;16428;47.836;35.106;2023-03-09T06:47:30;100307.13;;;10.02;100.00
29461;BME280;16428;47.836;35.106;2023-03-09T06:49:58;100312.84;;;9.99;100.00
29461;BME280;16428;47.836;35.106;2023-03-09T06:52:26;100308.81;;;10.03;100.00
29461;BME280;16428;47.836;35.106;2023-03-09T06:54:54;100313.53;;;10.15;100.00
29461;BME280;16428;47.836;35.106;2023-03-09T06:57:41;100308.25;;;9.93;100.00
29461;BME280;16428;47.836;35.106;2023-03-09T07:00:15;100304.22;;;9.74;100.00
29461;BME280;16428;47.836;35.106;2023-03-09T07:02:45;100313.59;;;9.93;100.00
29461;BME280;16428;47.836;35.106;2023-03-09T07:05:13;100301.66;;;10.10;100.00
29461;BME280;16428;47.836;35.106;2023-03-09T07:07:40;100312.69;;;10.15;100.00
29461;BME280;16428;47.836;35.106;2023-03-09T07:10:11;100315.00;;;10.18;100.00
29461;BME280;16428;47.836;35.106;2023-03-09T07:12:59;100325.59;;;10.49;100.00
29461;BME280;16428;47.836;35.106;2023-03-09T07:15:26;100329.84;;;10.58;100.00
29461;BME280;16428;47.836;35.106;2023-03-09T07:17:55;100337.25;;;10.56;100.00
29461;BME280;16428;47.836;35.106;2023-03-09T07:20:23;100341.34;;;10.52;100.00
29461;BME280;16428;47.836;35.106;2023-03-09T07:22:51;100343.84;;;10.53;100.00
29461;BME280;16428;47.836;35.106;2023-03-09T07:25:19;100344.75;;;10.61;100.00
29461;BME280;16428;47.836;35.106;2023-03-09T07:27:47;100339.28;;;10.39;100.00
29461;BME280;16428;47.836;35.106;2023-03-09T07:30:20;100345.94;;;10.73;100.00
29461;BME280;16428;47.836;35.106;2023-03-09T07:32:48;100343.22;;;10.51;100.00
29461;BME280;16428;47.836;35.106;2023-03-09T07:35:17;100330.69;;;10.58;100.00
29461;BME280;16428;47.836;35.106;2023-03-09T07:37:49;100336.97;;;10.80;100.00
29461;BME280;16428;47.836;35.106;2023-03-09T07:40:17;100338.06;;;10.86;100.00
29461;BME280;16428;47.836;35.106;2023-03-09T07:42:48;100338.66;;;10.81;100.00
29461;BME280;16428;47.836;35.106;2023-03-09T07:45:17;100334.50;;;11.00;100.00
29461;BME280;16428;47.836;35.106;2023-03-09T07:47:44;100340.56;;;11.23;100.00
29461;BME280;16428;47.836;35.106;2023-03-09T07:50:14;100337.31;;;11.28;100.00
29461;BME280;16428;47.836;35.106;2023-03-09T07:52:43;100338.66;;;11.39;100.00
29461;BME280;16428;47.836;35.106;2023-03-09T07:55:12;100333.66;;;11.36;100.00
29461;BME280;16428;47.836;35.106;2023-03-09T07:57:41;100324.06;;;11.48;100.00
29461;BME280;16428;47.836;35.106;2023-03-09T08:00:12;100321.00;;;11.72;100.00
29461;BME280;16428;47.836;35.106;2023-03-09T08:02:40;100317.16;;;11.60;100.00
29461;BME280;16428;47.836;35.106;2023-03-09T08:05:10;100313.44;;;11.82;100.00
29461;BME280;16428;47.836;35.106;2023-03-09T08:07:39;100311.88;;;11.94;100.00
29461;BME280;16428;47.836;35.106;2023-03-09T08:10:10;100308.75;;;11.70;100.00
29461;BME280;16428;47.836;35.106;2023-03-09T08:12:42;100319.56;;;11.97;100.00
29461;BME280;16428;47.836;35.106;2023-03-09T08:15:12;100312.84;;;12.15;100.00
29461;BME280;16428;47.836;35.106;2023-03-09T08:17:41;100313.94;;;12.20;100.00
29461;BME280;16428;47.836;35.106;2023-03-09T08:20:09;100317.16;;;12.37;100.00
29461;BME280;16428;47.836;35.106;2023-03-09T08:22:38;100317.78;;;12.80;100.00
29461;BME280;16428;47.836;35.106;2023-03-09T08:25:06;100314.53;;;12.98;100.00
29461;BME280;16428;47.836;35.106;2023-03-09T08:27:43;100316.69;;;13.22;100.00
29461;BME280;16428;47.836;35.106;2023-03-09T08:30:11;100315.50;;;13.45;100.00
29461;BME280;16428;47.836;35.106;2023-03-09T08:32:39;100312.00;;;13.64;99.66
29461;BME280;16428;47.836;35.106;2023-03-09T08:35:08;100299.72;;;13.42;100.00
29461;BME280;16428;47.836;35.106;2023-03-09T08:37:35;100309.94;;;13.86;99.21
29461;BME280;16428;47.836;35.106;2023-03-09T08:40:03;100303.88;;;13.77;98.34
29461;BME280;16428;47.836;35.106;2023-03-09T08:42:31;100296.81;;;13.63;98.00
29461;BME280;16428;47.836;35.106;2023-03-09T08:45:00;100299.75;;;13.75;97.59
29461;BME280;16428;47.836;35.106;2023-03-09T08:47:27;100300.56;;;13.75;96.93
29461;BME280;16428;47.836;35.106;2023-03-09T08:49:55;100310.75;;;13.99;96.33
29461;BME280;16428;47.836;35.106;2023-03-09T08:52:22;100314.47;;;14.12;95.80
29461;BME280;16428;47.836;35.106;2023-03-09T08:54:50;100294.53;;;14.13;94.76
29461;BME280;16428;47.836;35.106;2023-03-09T08:57:18;100299.69;;;14.47;93.56
29461;BME280;16428;47.836;35.106;2023-03-09T08:59:46;100285.72;;;14.37;94.55
29461;BME280;16428;47.836;35.106;2023-03-09T09:02:14;100285.03;;;14.74;92.81
29461;BME280;16428;47.836;35.106;2023-03-09T09:04:48;100282.50;;;14.80;91.49
29461;BME280;16428;47.836;35.106;2023-03-09T09:07:16;100282.91;;;14.83;90.39
29461;BME280;16428;47.836;35.106;2023-03-09T09:09:44;100274.97;;;14.95;90.04
29461;BME280;16428;47.836;35.106;2023-03-09T09:12:12;100278.47;;;15.33;89.31
29461;BME280;16428;47.836;35.106;2023-03-09T09:14:41;100273.84;;;15.72;85.73
29461;BME280;16428;47.836;35.106;2023-03-09T09:17:09;100271.66;;;15.80;84.20
29461;BME280;16428;47.836;35.106;2023-03-09T09:19:39;100267.88;;;15.88;84.59
29461;BME280;16428;47.836;35.106;2023-03-09T09:22:07;100270.63;;;16.25;82.22
29461;BME280;16428;47.836;35.106;2023-03-09T09:24:37;100254.66;;;16.35;81.50
29461;BME280;16428;47.836;35.106;2023-03-09T09:27:06;100261.88;;;16.41;80.36
29461;BME280;16428;47.836;35.106;2023-03-09T09:29:35;100267.16;;;16.72;79.30
29461;BME280;16428;47.836;35.106;2023-03-09T09:32:04;100258.06;;;16.67;78.82
29461;BME280;16428;47.836;35.106;2023-03-09T09:34:33;100249.38;;;16.95;79.73
29461;BME280;16428;47.836;35.106;2023-03-09T09:37:03;100241.66;;;17.21;77.37
29461;BME280;16428;47.836;35.106;2023-03-09T09:39:33;100249.81;;;17.21;74.09
29461;BME280;16428;47.836;35.106;2023-03-09T09:42:05;100238.66;;;17.11;71.89
29461;BME280;16428;47.836;35.106;2023-03-09T09:44:38;100231.09;;;17.02;72.30
29461;BME280;16428;47.836;35.106;2023-03-09T09:47:13;100226.00;;;17.35;72.74
29461;BME280;16428;47.836;35.106;2023-03-09T09:49:45;100234.34;;;17.87;69.32
29461;BME280;16428;47.836;35.106;2023-03-09T09:52:35;100226.69;;;17.84;69.91
29461;BME280;16428;47.836;35.106;2023-03-09T10:00:50;100221.28;;;18.36;66.09
29461;BME280;16428;47.836;35.106;2023-03-09T10:03:46;100221.56;;;18.74;64.47
29461;BME280;16428;47.836;35.106;2023-03-09T10:06:24;100213.47;;;18.79;65.11
29461;BME280;16428;47.836;35.106;2023-03-09T10:09:00;100208.34;;;18.54;65.13
29461;BME280;16428;47.836;35.106;2023-03-09T10:11:39;100203.94;;;18.77;63.91
29461;BME280;16428;47.836;35.106;2023-03-09T10:17:11;100192.31;;;19.60;61.29
29461;BME280;16428;47.836;35.106;2023-03-09T10:19:41;100177.94;;;19.48;62.66
29461;BME280;16428;47.836;35.106;2023-03-09T10:22:19;100179.19;;;19.74;61.16
29461;BME280;16428;47.836;35.106;2023-03-09T10:24:51;100175.09;;;19.93;58.85
29461;BME280;16428;47.836;35.106;2023-03-09T10:36:00;100153.31;;;20.15;57.45
29461;BME280;16428;47.836;35.106;2023-03-09T10:38:33;100155.66;;;20.50;54.47
29461;BME280;16428;47.836;35.106;2023-03-09T10:41:17;100139.63;;;20.31;53.61
29461;BME280;16428;47.836;35.106;2023-03-09T10:43:45;100144.72;;;20.45;53.98
29461;BME280;16428;47.836;35.106;2023-03-09T10:46:20;100133.06;;;20.76;52.97
29461;BME280;16428;47.836;35.106;2023-03-09T10:48:49;100138.22;;;20.51;51.84
29461;BME280;16428;47.836;35.106;2023-03-09T10:51:35;100123.06;;;20.60;53.37
29461;BME280;16428;47.836;35.106;2023-03-09T10:54:39;100121.03;;;20.50;52.76
29461;BME280;16428;47.836;35.106;2023-03-09T10:57:24;100113.03;;;20.22;53.11
29461;BME280;16428;47.836;35.106;2023-03-09T11:00:13;100103.97;;;20.60;51.63
29461;BME280;16428;47.836;35.106;2023-03-09T11:02:51;100107.22;;;20.89;51.47
29461;BME280;16428;47.836;35.106;2023-03-09T11:05:21;100103.81;;;21.03;50.67
29461;BME280;16428;47.836;35.106;2023-03-09T11:07:53;100097.56;;;20.76;52.36
29461;BME280;16428;47.836;35.106;2023-03-09T11:10:32;100086.16;;;20.09;45.20
29461;BME280;16428;47.836;35.106;2023-03-09T11:13:18;100085.84;;;20.05;43.65
29461;BME280;16428;47.836;35.106;2023-03-09T11:16:12;100080.34;;;19.06;45.24
29461;BME280;16428;47.836;35.106;2023-03-09T11:18:40;100061.19;;;19.18;45.85
29461;BME280;16428;47.836;35.106;2023-03-09T11:21:08;100063.34;;;19.71;45.00
29461;BME280;16428;47.836;35.106;2023-03-09T11:23:39;100066.22;;;19.26;44.96
29461;BME280;16428;47.836;35.106;2023-03-09T11:26:18;100069.19;;;19.80;46.47
29461;BME280;16428;47.836;35.106;2023-03-09T11:28:59;100053.72;;;19.85;44.38
29461;BME280;16428;47.836;35.106;2023-03-09T11:31:35;100049.22;;;19.52;43.78
29461;BME280;16428;47.836;35.106;2023-03-09T11:34:07;100057.75;;;19.06;43.34
29461;BME280;16428;47.836;35.106;2023-03-09T11:36:49;100042.78;;;19.25;44.41
29461;BME280;16428;47.836;35.106;2023-03-09T11:43:13;100048.75;;;18.88;44.54
29461;BME280;16428;47.836;35.106;2023-03-09T11:45:45;100041.91;;;19.41;44.05
29461;BME280;16428;47.836;35.106;2023-03-09T11:48:22;100033.88;;;19.29;44.23
29461;BME280;16428;47.836;35.106;2023-03-09T11:51:05;100035.34;;;19.37;44.23
29461;BME280;16428;47.836;35.106;2023-03-09T11:53:43;100038.44;;;19.62;43.53
29461;BME280;16428;47.836;35.106;2023-03-09T11:56:27;100035.47;;;19.86;42.77
29461;BME280;16428;47.836;35.106;2023-03-09T11:59:05;100023.94;;;20.27;41.85
29461;BME280;16428;47.836;35.106;2023-03-09T12:04:39;100032.41;;;19.60;41.95
29461;BME280;16428;47.836;35.106;2023-03-09T12:07:23;100028.88;;;19.43;41.37
29461;BME280;16428;47.836;35.106;2023-03-09T12:12:41;100030.28;;;19.07;43.49
29461;BME280;16428;47.836;35.106;2023-03-09T12:15:15;100015.41;;;19.15;42.96
29461;BME280;16428;47.836;35.106;2023-03-09T12:17:51;100019.69;;;19.27;42.01
29461;BME280;16428;47.836;35.106;2023-03-09T12:22:56;100010.72;;;20.14;40.58
29461;BME280;16428;47.836;35.106;2023-03-09T12:25:26;100015.75;;;19.79;40.49
29461;BME280;16428;47.836;35.106;2023-03-09T12:28:21;100011.84;;;19.70;40.87
29461;BME280;16428;47.836;35.106;2023-03-09T12:30:54;100014.56;;;20.18;40.54
29461;BME280;16428;47.836;35.106;2023-03-09T12:42:25;100007.13;;;19.26;40.08
29461;BME280;16428;47.836;35.106;2023-03-09T12:47:47;100017.75;;;19.06;39.97
29461;BME280;16428;47.836;35.106;2023-03-09T13:03:44;99993.69;;;21.30;36.54
29461;BME280;16428;47.836;35.106;2023-03-09T13:06:33;99996.31;;;21.67;36.31
29461;BME280;16428;47.836;35.106;2023-03-09T13:09:06;99988.41;;;21.75;36.10
29461;BME280;16428;47.836;35.106;2023-03-09T13:24:37;99986.91;;;18.05;41.56
29461;BME280;16428;47.836;35.106;2023-03-09T13:29:50;99997.69;;;18.00;41.26
29461;BME280;16428;47.836;35.106;2023-03-09T13:34:46;99998.94;;;17.81;41.10
29461;BME280;16428;47.836;35.106;2023-03-09T13:37:21;99997.19;;;17.63;41.70
29461;BME280;16428;47.836;35.106;2023-03-09T13:39:58;100004.19;;;17.71;41.51
29461;BME280;16428;47.836;35.106;2023-03-09T13:42:29;100001.78;;;17.63;41.58
29461;BME280;16428;47.836;35.106;2023-03-09T13:45:00;99998.13;;;17.57;41.89
29461;BME280;16428;47.836;35.106;2023-03-09T13:47:32;99986.72;;;17.67;42.42
29461;BME280;16428;47.836;35.106;2023-03-09T13:50:02;99993.03;;;17.84;42.10
29461;BME280;16428;47.836;35.106;2023-03-09T13:52:30;99988.78;;;18.50;41.28
29461;BME280;16428;47.836;35.106;2023-03-09T13:54:59;99985.75;;;18.96;40.24
29461;BME280;16428;47.836;35.106;2023-03-09T13:57:30;99982.16;;;19.95;38.74
29461;BME280;16428;47.836;35.106;2023-03-09T14:00:17;99980.56;;;19.99;38.94
29461;BME280;16428;47.836;35.106;2023-03-09T14:02:46;99977.94;;;19.82;39.27
29461;BME280;16428;47.836;35.106;2023-03-09T14:08:03;99980.88;;;19.54;39.89
29461;BME280;16428;47.836;35.106;2023-03-09T14:10:34;99971.69;;;19.87;39.31
29461;BME280;16428;47.836;35.106;2023-03-09T14:13:14;99972.38;;;20.53;38.51
29461;BME280;16428;47.836;35.106;2023-03-09T14:16:06;99976.19;;;20.52;38.28
29461;BME280;16428;47.836;35.106;2023-03-09T14:18:46;99967.53;;;20.65;37.89
29461;BME280;16428;47.836;35.106;2023-03-09T14:23:50;99962.38;;;21.58;36.86
29461;BME280;16428;47.836;35.106;2023-03-09T14:26:30;99951.50;;;21.16;37.62
29461;BME280;16428;47.836;35.106;2023-03-09T14:29:23;99958.69;;;20.85;38.17
29461;BME280;16428;47.836;35.106;2023-03-09T14:32:18;99964.53;;;21.46;37.63
29461;BME280;16428;47.836;35.106;2023-03-09T14:34:46;99950.03;;;20.56;38.57
29461;BME280;16428;47.836;35.106;2023-03-09T14:37:32;99961.56;;;19.82;39.16